Clearview, Washington
Current Conditions -  °F | °C
As of 9:53 PM on Tuesday 21 Oct 2014 (Local Time) from KPAE Reporting Station
Light Rain Light Rain  
Wind Chill: 14°   Ceiling: 6500
Heat Index: 14°   Visibility: 10mi
Dew Point:   Wind: 14mph
Humidity: 67%   Direction: 160°SSE
Pressure: 29.79"   Gusts: 31mph
Location:  47.9468°N, 122.012°W
Report Text: KPAE 220453Z AUTO 16012G27KT 10SM -RA OVC065 14/08 A2979 RMK AO2 PK WND 16027/0446 RAB27 SLP086 P0001 T01390078
Loading
Personal Weather Stations






























Interactive Weather Map
Tropical Storm Tracking
New forecast layout! Learn more

10-Day Weather Forecast

Advertisements
Track Severe Weather on mobile